sensor_id;sensor_type;location;lat;lon;timestamp;temperature;humidity
13253;DHT22;6693;54.370;10.132;2022-09-12T00:01:01;18.80;1.00
13253;DHT22;6693;54.370;10.132;2022-09-12T00:03:02;18.80;1.00
13253;DHT22;6693;54.370;10.132;2022-09-12T00:05:04;18.80;1.00
13253;DHT22;6693;54.370;10.132;2022-09-12T00:07:07;18.80;1.00
13253;DHT22;6693;54.370;10.132;2022-09-12T00:09:10;18.60;1.00
13253;DHT22;6693;54.370;10.132;2022-09-12T00:11:12;18.50;1.00
13253;DHT22;6693;54.370;10.132;2022-09-12T00:13:13;18.50;1.00
13253;DHT22;6693;54.370;10.132;2022-09-12T00:15:15;18.50;1.00
13253;DHT22;6693;54.370;10.132;2022-09-12T00:17:16;18.50;1.00
13253;DHT22;6693;54.370;10.132;2022-09-12T00:19:18;18.40;1.00
13253;DHT22;6693;54.370;10.132;2022-09-12T00:21:20;18.40;1.00
13253;DHT22;6693;54.370;10.132;2022-09-12T00:23:23;18.30;1.00
13253;DHT22;6693;54.370;10.132;2022-09-12T00:25:24;18.30;1.00
13253;DHT22;6693;54.370;10.132;2022-09-12T00:27:26;18.40;99.90
13253;DHT22;6693;54.370;10.132;2022-09-12T00:29:27;18.50;99.90
13253;DHT22;6693;54.370;10.132;2022-09-12T00:31:29;18.60;99.90
13253;DHT22;6693;54.370;10.132;2022-09-12T00:33:30;18.70;1.00
13253;DHT22;6693;54.370;10.132;2022-09-12T00:35:32;18.80;1.00
13253;DHT22;6693;54.370;10.132;2022-09-12T00:37:34;18.80;1.00
13253;DHT22;6693;54.370;10.132;2022-09-12T00:39:36;18.80;99.90
13253;DHT22;6693;54.370;10.132;2022-09-12T00:41:38;18.80;88.90
13253;DHT22;6693;54.370;10.132;2022-09-12T00:43:40;18.70;1.00
13253;DHT22;6693;54.370;10.132;2022-09-12T00:45:42;18.50;1.00
13253;DHT22;6693;54.370;10.132;2022-09-12T00:47:44;18.40;1.00
13253;DHT22;6693;54.370;10.132;2022-09-12T00:49:47;18.30;1.00
13253;DHT22;6693;54.370;10.132;2022-09-12T00:51:50;18.10;1.00
13253;DHT22;6693;54.370;10.132;2022-09-12T00:53:52;17.90;76.50
13253;DHT22;6693;54.370;10.132;2022-09-12T00:55:57;17.80;1.00
13253;DHT22;6693;54.370;10.132;2022-09-12T00:58:00;17.90;1.00
13253;DHT22;6693;54.370;10.132;2022-09-12T01:00:07;18.00;1.00
13253;DHT22;6693;54.370;10.132;2022-09-12T01:02:11;18.10;1.00
13253;DHT22;6693;54.370;10.132;2022-09-12T01:04:13;18.30;1.00
13253;DHT22;6693;54.370;10.132;2022-09-12T01:06:17;18.30;1.00
13253;DHT22;6693;54.370;10.132;2022-09-12T01:08:19;18.30;1.00
13253;DHT22;6693;54.370;10.132;2022-09-12T01:10:21;18.20;1.00
13253;DHT22;6693;54.370;10.132;2022-09-12T01:12:25;18.30;1.00
13253;DHT22;6693;54.370;10.132;2022-09-12T01:14:27;18.40;9.70
13253;DHT22;6693;54.370;10.132;2022-09-12T01:16:29;18.40;99.90
13253;DHT22;6693;54.370;10.132;2022-09-12T01:18:33;18.40;99.90
13253;DHT22;6693;54.370;10.132;2022-09-12T01:25:18;18.30;1.00
13253;DHT22;6693;54.370;10.132;2022-09-12T01:29:47;18.00;1.00
13253;DHT22;6693;54.370;10.132;2022-09-12T01:31:55;18.00;99.90
13253;DHT22;6693;54.370;10.132;2022-09-12T01:34:04;18.10;99.90
13253;DHT22;6693;54.370;10.132;2022-09-12T01:36:16;18.20;99.90
13253;DHT22;6693;54.370;10.132;2022-09-12T01:38:24;18.20;99.90
13253;DHT22;6693;54.370;10.132;2022-09-12T01:40:29;18.30;99.90
13253;DHT22;6693;54.370;10.132;2022-09-12T01:42:32;18.20;99.90
13253;DHT22;6693;54.370;10.132;2022-09-12T01:44:36;18.10;1.00
13253;DHT22;6693;54.370;10.132;2022-09-12T01:46:41;17.90;1.00
13253;DHT22;6693;54.370;10.132;2022-09-12T01:48:46;17.90;40.20
13253;DHT22;6693;54.370;10.132;2022-09-12T01:50:51;17.90;99.90
13253;DHT22;6693;54.370;10.132;2022-09-12T01:52:55;18.00;99.90
13253;DHT22;6693;54.370;10.132;2022-09-12T01:54:59;18.10;1.00
13253;DHT22;6693;54.370;10.132;2022-09-12T01:57:03;18.10;1.00
13253;DHT22;6693;54.370;10.132;2022-09-12T01:59:09;18.10;1.00
13253;DHT22;6693;54.370;10.132;2022-09-12T02:01:13;18.20;1.00
13253;DHT22;6693;54.370;10.132;2022-09-12T02:03:17;18.10;99.90
13253;DHT22;6693;54.370;10.132;2022-09-12T02:05:23;18.10;99.90
13253;DHT22;6693;54.370;10.132;2022-09-12T02:07:26;18.20;1.00
13253;DHT22;6693;54.370;10.132;2022-09-12T02:09:32;18.20;1.00
13253;DHT22;6693;54.370;10.132;2022-09-12T02:11:35;18.30;1.00
13253;DHT22;6693;54.370;10.132;2022-09-12T02:13:39;18.30;1.00
13253;DHT22;6693;54.370;10.132;2022-09-12T02:15:42;18.40;1.00
13253;DHT22;6693;54.370;10.132;2022-09-12T02:17:46;18.40;1.00
13253;DHT22;6693;54.370;10.132;2022-09-12T02:19:51;18.30;1.00
13253;DHT22;6693;54.370;10.132;2022-09-12T02:21:55;18.40;1.00
13253;DHT22;6693;54.370;10.132;2022-09-12T02:23:57;18.40;1.00
13253;DHT22;6693;54.370;10.132;2022-09-12T02:26:01;18.40;1.00
13253;DHT22;6693;54.370;10.132;2022-09-12T02:28:05;18.40;1.00
13253;DHT22;6693;54.370;10.132;2022-09-12T02:30:07;18.40;1.00
13253;DHT22;6693;54.370;10.132;2022-09-12T02:32:11;18.30;1.00
13253;DHT22;6693;54.370;10.132;2022-09-12T02:34:21;18.30;1.00
13253;DHT22;6693;54.370;10.132;2022-09-12T02:36:29;18.30;1.00
13253;DHT22;6693;54.370;10.132;2022-09-12T02:38:34;18.60;1.00
13253;DHT22;6693;54.370;10.132;2022-09-12T02:40:38;18.40;1.00
13253;DHT22;6693;54.370;10.132;2022-09-12T02:42:39;18.40;1.00
13253;DHT22;6693;54.370;10.132;2022-09-12T02:44:41;18.40;1.00
13253;DHT22;6693;54.370;10.132;2022-09-12T02:46:45;18.40;1.00
13253;DHT22;6693;54.370;10.132;2022-09-12T02:48:48;18.40;1.00
13253;DHT22;6693;54.370;10.132;2022-09-12T02:50:49;18.30;1.00
13253;DHT22;6693;54.370;10.132;2022-09-12T02:52:51;18.40;1.00
13253;DHT22;6693;54.370;10.132;2022-09-12T02:54:56;18.40;1.00
13253;DHT22;6693;54.370;10.132;2022-09-12T02:56:58;18.40;1.00
13253;DHT22;6693;54.370;10.132;2022-09-12T02:59:00;18.40;1.00
13253;DHT22;6693;54.370;10.132;2022-09-12T03:01:04;18.30;99.90
13253;DHT22;6693;54.370;10.132;2022-09-12T03:03:15;18.10;99.90
13253;DHT22;6693;54.370;10.132;2022-09-12T03:05:22;18.00;99.90
13253;DHT22;6693;54.370;10.132;2022-09-12T03:07:27;18.00;99.90
13253;DHT22;6693;54.370;10.132;2022-09-12T03:09:34;17.90;99.90
13253;DHT22;6693;54.370;10.132;2022-09-12T03:11:41;17.90;1.00
13253;DHT22;6693;54.370;10.132;2022-09-12T03:13:52;17.70;1.00
13253;DHT22;6693;54.370;10.132;2022-09-12T03:16:00;17.60;99.90
13253;DHT22;6693;54.370;10.132;2022-09-12T03:18:05;17.60;1.00
13253;DHT22;6693;54.370;10.132;2022-09-12T03:20:10;17.60;1.00
13253;DHT22;6693;54.370;10.132;2022-09-12T03:22:14;16.20;1.00
13253;DHT22;6693;54.370;10.132;2022-09-12T03:24:19;17.80;1.00
13253;DHT22;6693;54.370;10.132;2022-09-12T03:26:24;17.80;1.00
13253;DHT22;6693;54.370;10.132;2022-09-12T03:28:29;17.90;1.00
13253;DHT22;6693;54.370;10.132;2022-09-12T03:30:35;17.80;1.00
13253;DHT22;6693;54.370;10.132;2022-09-12T03:32:41;17.70;1.00
13253;DHT22;6693;54.370;10.132;2022-09-12T03:34:43;17.60;1.00
13253;DHT22;6693;54.370;10.132;2022-09-12T03:36:44;17.60;1.00
13253;DHT22;6693;54.370;10.132;2022-09-12T03:38:46;17.60;1.00
13253;DHT22;6693;54.370;10.132;2022-09-12T03:40:47;17.50;1.00
13253;DHT22;6693;54.370;10.132;2022-09-12T03:42:49;17.40;1.00
13253;DHT22;6693;54.370;10.132;2022-09-12T03:44:52;17.50;1.00
13253;DHT22;6693;54.370;10.132;2022-09-12T03:46:53;17.50;14.90
13253;DHT22;6693;54.370;10.132;2022-09-12T03:48:55;17.60;83.60
13253;DHT22;6693;54.370;10.132;2022-09-12T03:50:58;17.50;99.90
13253;DHT22;6693;54.370;10.132;2022-09-12T03:53:00;17.60;99.90
13253;DHT22;6693;54.370;10.132;2022-09-12T03:55:02;17.60;99.90
13253;DHT22;6693;54.370;10.132;2022-09-12T03:57:03;17.60;99.90
13253;DHT22;6693;54.370;10.132;2022-09-12T03:59:05;17.60;99.90
13253;DHT22;6693;54.370;10.132;2022-09-12T04:01:08;17.70;99.90
13253;DHT22;6693;54.370;10.132;2022-09-12T04:03:11;17.70;99.90
13253;DHT22;6693;54.370;10.132;2022-09-12T04:05:13;17.70;99.90
13253;DHT22;6693;54.370;10.132;2022-09-12T04:07:15;17.60;1.00
13253;DHT22;6693;54.370;10.132;2022-09-12T04:09:17;17.50;1.00
13253;DHT22;6693;54.370;10.132;2022-09-12T04:11:19;17.40;1.00
13253;DHT22;6693;54.370;10.132;2022-09-12T04:13:21;17.20;1.00
13253;DHT22;6693;54.370;10.132;2022-09-12T04:15:22;17.10;1.00
13253;DHT22;6693;54.370;10.132;2022-09-12T04:17:25;17.10;99.50
13253;DHT22;6693;54.370;10.132;2022-09-12T04:19:27;17.20;1.00
13253;DHT22;6693;54.370;10.132;2022-09-12T04:21:28;17.30;1.00
13253;DHT22;6693;54.370;10.132;2022-09-12T04:23:30;17.30;1.00
13253;DHT22;6693;54.370;10.132;2022-09-12T04:25:31;17.30;1.00
13253;DHT22;6693;54.370;10.132;2022-09-12T04:27:33;17.30;99.90
13253;DHT22;6693;54.370;10.132;2022-09-12T04:29:34;17.40;99.90
13253;DHT22;6693;54.370;10.132;2022-09-12T04:31:36;17.50;99.90
13253;DHT22;6693;54.370;10.132;2022-09-12T04:33:39;17.50;99.90
13253;DHT22;6693;54.370;10.132;2022-09-12T04:35:40;17.50;99.90
13253;DHT22;6693;54.370;10.132;2022-09-12T04:37:42;17.60;1.00
13253;DHT22;6693;54.370;10.132;2022-09-12T04:39:43;17.60;1.00
13253;DHT22;6693;54.370;10.132;2022-09-12T04:41:45;17.50;1.00
13253;DHT22;6693;54.370;10.132;2022-09-12T04:43:47;17.50;99.90
13253;DHT22;6693;54.370;10.132;2022-09-12T04:45:51;17.50;1.00
13253;DHT22;6693;54.370;10.132;2022-09-12T04:47:53;17.50;1.00
13253;DHT22;6693;54.370;10.132;2022-09-12T04:49:56;17.50;1.00
13253;DHT22;6693;54.370;10.132;2022-09-12T04:51:57;17.50;1.00
13253;DHT22;6693;54.370;10.132;2022-09-12T04:54:00;17.60;1.00
13253;DHT22;6693;54.370;10.132;2022-09-12T04:56:02;17.60;1.00
13253;DHT22;6693;54.370;10.132;2022-09-12T04:58:04;17.70;1.00
13253;DHT22;6693;54.370;10.132;2022-09-12T05:00:06;17.70;1.00
13253;DHT22;6693;54.370;10.132;2022-09-12T05:02:08;17.60;1.00
13253;DHT22;6693;54.370;10.132;2022-09-12T05:04:09;17.60;1.00
13253;DHT22;6693;54.370;10.132;2022-09-12T05:06:14;17.70;1.00
13253;DHT22;6693;54.370;10.132;2022-09-12T05:08:15;17.80;1.00
13253;DHT22;6693;54.370;10.132;2022-09-12T05:10:17;17.70;1.00
13253;DHT22;6693;54.370;10.132;2022-09-12T05:12:18;17.70;1.00
13253;DHT22;6693;54.370;10.132;2022-09-12T05:14:20;17.70;1.00
13253;DHT22;6693;54.370;10.132;2022-09-12T05:16:23;17.80;1.00
13253;DHT22;6693;54.370;10.132;2022-09-12T05:18:25;17.90;1.00
13253;DHT22;6693;54.370;10.132;2022-09-12T05:20:27;17.90;1.00
13253;DHT22;6693;54.370;10.132;2022-09-12T05:22:30;18.00;1.00
13253;DHT22;6693;54.370;10.132;2022-09-12T05:24:31;18.00;1.00
13253;DHT22;6693;54.370;10.132;2022-09-12T05:26:33;18.10;1.00
13253;DHT22;6693;54.370;10.132;2022-09-12T05:28:35;18.10;1.00
13253;DHT22;6693;54.370;10.132;2022-09-12T05:30:37;18.10;1.00
13253;DHT22;6693;54.370;10.132;2022-09-12T05:32:39;18.10;1.00
13253;DHT22;6693;54.370;10.132;2022-09-12T05:34:40;18.10;35.30
13253;DHT22;6693;54.370;10.132;2022-09-12T05:36:42;18.20;99.90
13253;DHT22;6693;54.370;10.132;2022-09-12T05:38:45;17.80;99.90
13253;DHT22;6693;54.370;10.132;2022-09-12T05:40:46;18.40;99.90
13253;DHT22;6693;54.370;10.132;2022-09-12T05:42:48;18.50;99.90
13253;DHT22;6693;54.370;10.132;2022-09-12T05:44:49;18.40;99.90
13253;DHT22;6693;54.370;10.132;2022-09-12T05:46:51;18.40;99.90
13253;DHT22;6693;54.370;10.132;2022-09-12T05:48:53;18.50;99.90
13253;DHT22;6693;54.370;10.132;2022-09-12T05:50:58;18.50;99.90
13253;DHT22;6693;54.370;10.132;2022-09-12T05:53:00;18.50;99.90
13253;DHT22;6693;54.370;10.132;2022-09-12T05:55:03;18.30;30.20
13253;DHT22;6693;54.370;10.132;2022-09-12T05:57:05;18.50;99.90
13253;DHT22;6693;54.370;10.132;2022-09-12T05:59:09;18.60;99.90
13253;DHT22;6693;54.370;10.132;2022-09-12T06:01:12;18.70;99.90
13253;DHT22;6693;54.370;10.132;2022-09-12T06:03:13;18.80;99.90
13253;DHT22;6693;54.370;10.132;2022-09-12T06:05:15;18.80;99.90
13253;DHT22;6693;54.370;10.132;2022-09-12T06:07:17;18.90;99.90
13253;DHT22;6693;54.370;10.132;2022-09-12T06:09:19;19.00;99.90
13253;DHT22;6693;54.370;10.132;2022-09-12T06:11:22;19.10;1.00
13253;DHT22;6693;54.370;10.132;2022-09-12T06:13:25;19.20;1.00
13253;DHT22;6693;54.370;10.132;2022-09-12T06:15:26;19.30;1.00
13253;DHT22;6693;54.370;10.132;2022-09-12T06:17:28;19.30;1.00
13253;DHT22;6693;54.370;10.132;2022-09-12T06:19:29;19.40;1.00
13253;DHT22;6693;54.370;10.132;2022-09-12T06:21:31;19.50;1.00
13253;DHT22;6693;54.370;10.132;2022-09-12T06:23:33;19.40;99.90
13253;DHT22;6693;54.370;10.132;2022-09-12T06:25:35;19.40;99.90
13253;DHT22;6693;54.370;10.132;2022-09-12T06:27:38;19.60;99.90
13253;DHT22;6693;54.370;10.132;2022-09-12T06:29:39;19.80;1.00
13253;DHT22;6693;54.370;10.132;2022-09-12T06:31:41;19.90;1.00
13253;DHT22;6693;54.370;10.132;2022-09-12T06:33:44;20.10;99.90
13253;DHT22;6693;54.370;10.132;2022-09-12T06:35:46;20.10;99.90
13253;DHT22;6693;54.370;10.132;2022-09-12T06:37:47;20.20;99.90
13253;DHT22;6693;54.370;10.132;2022-09-12T06:39:49;20.30;99.90
13253;DHT22;6693;54.370;10.132;2022-09-12T06:41:50;20.40;99.90
13253;DHT22;6693;54.370;10.132;2022-09-12T06:43:53;20.40;99.90
13253;DHT22;6693;54.370;10.132;2022-09-12T06:45:55;20.50;99.90
13253;DHT22;6693;54.370;10.132;2022-09-12T06:47:57;20.60;54.70
13253;DHT22;6693;54.370;10.132;2022-09-12T06:49:58;20.70;1.00
13253;DHT22;6693;54.370;10.132;2022-09-12T06:52:00;20.80;1.00
13253;DHT22;6693;54.370;10.132;2022-09-12T06:54:02;20.70;1.00
13253;DHT22;6693;54.370;10.132;2022-09-12T06:56:05;20.80;1.00
13253;DHT22;6693;54.370;10.132;2022-09-12T06:58:07;20.80;1.00
13253;DHT22;6693;54.370;10.132;2022-09-12T07:00:10;20.80;99.90
13253;DHT22;6693;54.370;10.132;2022-09-12T07:02:12;20.90;99.90
13253;DHT22;6693;54.370;10.132;2022-09-12T07:04:14;20.90;99.90
13253;DHT22;6693;54.370;10.132;2022-09-12T07:06:16;21.00;99.90
13253;DHT22;6693;54.370;10.132;2022-09-12T07:08:18;20.90;28.50
13253;DHT22;6693;54.370;10.132;2022-09-12T07:10:19;20.80;1.00
13253;DHT22;6693;54.370;10.132;2022-09-12T07:12:21;20.80;1.00
13253;DHT22;6693;54.370;10.132;2022-09-12T07:14:23;20.90;1.00
13253;DHT22;6693;54.370;10.132;2022-09-12T07:16:26;20.90;1.00
13253;DHT22;6693;54.370;10.132;2022-09-12T07:18:28;20.80;1.00
13253;DHT22;6693;54.370;10.132;2022-09-12T07:20:30;20.70;99.90
13253;DHT22;6693;54.370;10.132;2022-09-12T07:22:33;20.70;99.90
13253;DHT22;6693;54.370;10.132;2022-09-12T07:24:34;20.70;99.90
13253;DHT22;6693;54.370;10.132;2022-09-12T07:26:36;20.80;99.90
13253;DHT22;6693;54.370;10.132;2022-09-12T07:28:39;20.90;99.90
13253;DHT22;6693;54.370;10.132;2022-09-12T07:30:40;21.10;99.90
13253;DHT22;6693;54.370;10.132;2022-09-12T07:32:43;21.00;99.90
13253;DHT22;6693;54.370;10.132;2022-09-12T07:34:45;21.30;99.90
13253;DHT22;6693;54.370;10.132;2022-09-12T07:36:46;21.50;99.90
13253;DHT22;6693;54.370;10.132;2022-09-12T07:38:52;21.50;1.00
13253;DHT22;6693;54.370;10.132;2022-09-12T07:40:54;21.40;1.00
13253;DHT22;6693;54.370;10.132;2022-09-12T07:42:55;21.40;1.00
13253;DHT22;6693;54.370;10.132;2022-09-12T07:44:57;21.40;1.00
13253;DHT22;6693;54.370;10.132;2022-09-12T07:46:58;21.40;99.90
13253;DHT22;6693;54.370;10.132;2022-09-12T07:49:01;21.40;99.90
13253;DHT22;6693;54.370;10.132;2022-09-12T07:51:04;21.70;99.90
13253;DHT22;6693;54.370;10.132;2022-09-12T07:53:06;21.70;99.90
13253;DHT22;6693;54.370;10.132;2022-09-12T07:55:09;22.20;99.90
13253;DHT22;6693;54.370;10.132;2022-09-12T07:57:10;22.20;99.90
13253;DHT22;6693;54.370;10.132;2022-09-12T07:59:12;22.10;1.00
13253;DHT22;6693;54.370;10.132;2022-09-12T08:01:14;22.30;1.00
13253;DHT22;6693;54.370;10.132;2022-09-12T08:03:16;22.00;1.00
13253;DHT22;6693;54.370;10.132;2022-09-12T08:05:19;21.90;1.00
13253;DHT22;6693;54.370;10.132;2022-09-12T08:07:21;21.90;1.00
13253;DHT22;6693;54.370;10.132;2022-09-12T08:09:22;22.00;1.00
13253;DHT22;6693;54.370;10.132;2022-09-12T08:11:24;22.10;1.00
13253;DHT22;6693;54.370;10.132;2022-09-12T08:13:27;22.10;1.00
13253;DHT22;6693;54.370;10.132;2022-09-12T08:15:29;22.30;1.00
13253;DHT22;6693;54.370;10.132;2022-09-12T08:17:31;22.20;99.90
13253;DHT22;6693;54.370;10.132;2022-09-12T08:19:32;22.50;99.90
13253;DHT22;6693;54.370;10.132;2022-09-12T08:21:35;22.60;99.90
13253;DHT22;6693;54.370;10.132;2022-09-12T08:23:37;22.50;99.90
13253;DHT22;6693;54.370;10.132;2022-09-12T08:25:38;22.50;99.90
13253;DHT22;6693;54.370;10.132;2022-09-12T08:27:40;22.60;99.90
13253;DHT22;6693;54.370;10.132;2022-09-12T08:29:42;22.80;99.90
13253;DHT22;6693;54.370;10.132;2022-09-12T08:31:44;23.00;99.90
13253;DHT22;6693;54.370;10.132;2022-09-12T08:33:46;23.10;99.90
13253;DHT22;6693;54.370;10.132;2022-09-12T08:35:47;23.30;91.80
13253;DHT22;6693;54.370;10.132;2022-09-12T08:37:50;23.40;5.00
13253;DHT22;6693;54.370;10.132;2022-09-12T08:39:51;23.30;1.00
13253;DHT22;6693;54.370;10.132;2022-09-12T08:41:55;23.30;1.00
13253;DHT22;6693;54.370;10.132;2022-09-12T08:44:02;23.20;1.00
13253;DHT22;6693;54.370;10.132;2022-09-12T08:46:06;23.10;1.00
13253;DHT22;6693;54.370;10.132;2022-09-12T08:48:09;23.10;1.00
13253;DHT22;6693;54.370;10.132;2022-09-12T08:50:13;23.20;1.00
13253;DHT22;6693;54.370;10.132;2022-09-12T08:52:18;23.30;1.00
13253;DHT22;6693;54.370;10.132;2022-09-12T08:54:23;23.10;1.00
13253;DHT22;6693;54.370;10.132;2022-09-12T08:56:26;23.00;1.00
13253;DHT22;6693;54.370;10.132;2022-09-12T08:58:29;23.00;1.00
13253;DHT22;6693;54.370;10.132;2022-09-12T09:00:37;22.90;1.00
13253;DHT22;6693;54.370;10.132;2022-09-12T09:02:44;23.10;1.00
13253;DHT22;6693;54.370;10.132;2022-09-12T09:04:49;23.20;1.00
13253;DHT22;6693;54.370;10.132;2022-09-12T09:06:57;23.30;99.90
13253;DHT22;6693;54.370;10.132;2022-09-12T09:09:04;23.40;99.90
13253;DHT22;6693;54.370;10.132;2022-09-12T09:11:12;23.50;99.90
13253;DHT22;6693;54.370;10.132;2022-09-12T09:13:18;23.40;99.90
13253;DHT22;6693;54.370;10.132;2022-09-12T09:15:40;23.70;99.90
13253;DHT22;6693;54.370;10.132;2022-09-12T09:17:46;23.30;99.90
13253;DHT22;6693;54.370;10.132;2022-09-12T09:19:50;23.20;99.90
13253;DHT22;6693;54.370;10.132;2022-09-12T09:21:55;23.20;99.90
13253;DHT22;6693;54.370;10.132;2022-09-12T09:23:58;23.30;99.90
13253;DHT22;6693;54.370;10.132;2022-09-12T09:26:03;23.50;99.90
13253;DHT22;6693;54.370;10.132;2022-09-12T09:28:10;23.40;99.90
13253;DHT22;6693;54.370;10.132;2022-09-12T09:30:14;23.70;99.90
13253;DHT22;6693;54.370;10.132;2022-09-12T09:32:16;23.80;99.90
13253;DHT22;6693;54.370;10.132;2022-09-12T09:34:19;23.80;99.90
13253;DHT22;6693;54.370;10.132;2022-09-12T09:36:21;23.70;99.90
13253;DHT22;6693;54.370;10.132;2022-09-12T09:38:26;23.80;99.90
13253;DHT22;6693;54.370;10.132;2022-09-12T09:40:33;24.10;99.90
13253;DHT22;6693;54.370;10.132;2022-09-12T09:42:39;24.10;85.90
13253;DHT22;6693;54.370;10.132;2022-09-12T09:44:43;23.50;1.00
13253;DHT22;6693;54.370;10.132;2022-09-12T09:46:47;23.40;1.00
13253;DHT22;6693;54.370;10.132;2022-09-12T09:48:50;23.30;1.00
13253;DHT22;6693;54.370;10.132;2022-09-12T09:50:52;23.60;1.00
13253;DHT22;6693;54.370;10.132;2022-09-12T09:52:53;23.70;1.00
13253;DHT22;6693;54.370;10.132;2022-09-12T09:54:57;24.00;1.00
13253;DHT22;6693;54.370;10.132;2022-09-12T09:56:59;23.90;1.00
13253;DHT22;6693;54.370;10.132;2022-09-12T09:59:07;24.00;1.00
13253;DHT22;6693;54.370;10.132;2022-09-12T10:01:14;23.90;1.00
13253;DHT22;6693;54.370;10.132;2022-09-12T10:03:29;23.90;1.00
13253;DHT22;6693;54.370;10.132;2022-09-12T10:05:32;23.70;1.00
13253;DHT22;6693;54.370;10.132;2022-09-12T10:07:34;23.70;1.00
13253;DHT22;6693;54.370;10.132;2022-09-12T10:09:35;23.90;1.00
13253;DHT22;6693;54.370;10.132;2022-09-12T10:11:37;23.70;1.00
13253;DHT22;6693;54.370;10.132;2022-09-12T10:13:40;23.40;1.00
13253;DHT22;6693;54.370;10.132;2022-09-12T10:15:45;24.20;1.00
13253;DHT22;6693;54.370;10.132;2022-09-12T10:17:56;23.70;1.00
13253;DHT22;6693;54.370;10.132;2022-09-12T10:19:59;23.70;1.00
13253;DHT22;6693;54.370;10.132;2022-09-12T10:22:00;23.80;1.00
13253;DHT22;6693;54.370;10.132;2022-09-12T10:24:04;23.90;1.00
13253;DHT22;6693;54.370;10.132;2022-09-12T10:26:07;24.20;1.00
13253;DHT22;6693;54.370;10.132;2022-09-12T10:28:11;24.20;1.00
13253;DHT22;6693;54.370;10.132;2022-09-12T10:30:22;24.00;1.00
13253;DHT22;6693;54.370;10.132;2022-09-12T10:32:25;24.20;1.00
13253;DHT22;6693;54.370;10.132;2022-09-12T10:34:33;24.40;1.00
13253;DHT22;6693;54.370;10.132;2022-09-12T10:36:35;24.60;1.00
13253;DHT22;6693;54.370;10.132;2022-09-12T10:38:37;24.30;1.00
13253;DHT22;6693;54.370;10.132;2022-09-12T10:40:39;24.10;1.00
13253;DHT22;6693;54.370;10.132;2022-09-12T10:42:47;23.80;1.00
13253;DHT22;6693;54.370;10.132;2022-09-12T10:44:51;23.80;1.00
13253;DHT22;6693;54.370;10.132;2022-09-12T10:46:53;23.90;1.00
13253;DHT22;6693;54.370;10.132;2022-09-12T10:49:18;24.40;1.00
13253;DHT22;6693;54.370;10.132;2022-09-12T10:51:26;24.70;1.00
13253;DHT22;6693;54.370;10.132;2022-09-12T10:53:30;24.60;1.00
13253;DHT22;6693;54.370;10.132;2022-09-12T10:55:32;24.30;1.00
13253;DHT22;6693;54.370;10.132;2022-09-12T10:57:40;23.70;1.00
13253;DHT22;6693;54.370;10.132;2022-09-12T10:59:55;23.80;1.00
13253;DHT22;6693;54.370;10.132;2022-09-12T11:01:59;23.80;1.00
13253;DHT22;6693;54.370;10.132;2022-09-12T11:04:04;23.90;1.00
13253;DHT22;6693;54.370;10.132;2022-09-12T11:06:10;24.30;1.00
13253;DHT22;6693;54.370;10.132;2022-09-12T11:08:30;24.60;1.00
13253;DHT22;6693;54.370;10.132;2022-09-12T11:10:37;24.70;1.00
13253;DHT22;6693;54.370;10.132;2022-09-12T11:12:46;24.40;1.00
13253;DHT22;6693;54.370;10.132;2022-09-12T11:14:55;24.00;1.00
13253;DHT22;6693;54.370;10.132;2022-09-12T11:17:02;24.30;1.00
13253;DHT22;6693;54.370;10.132;2022-09-12T11:19:17;24.40;1.00
13253;DHT22;6693;54.370;10.132;2022-09-12T11:21:28;24.60;1.00
13253;DHT22;6693;54.370;10.132;2022-09-12T11:23:44;24.50;1.00
13253;DHT22;6693;54.370;10.132;2022-09-12T11:25:48;24.40;1.00
13253;DHT22;6693;54.370;10.132;2022-09-12T11:30:10;24.40;1.00
13253;DHT22;6693;54.370;10.132;2022-09-12T11:34:37;24.30;1.00
13253;DHT22;6693;54.370;10.132;2022-09-12T11:36:43;24.10;1.00
13253;DHT22;6693;54.370;10.132;2022-09-12T11:38:53;24.20;1.00
13253;DHT22;6693;54.370;10.132;2022-09-12T11:40:58;24.40;1.00
13253;DHT22;6693;54.370;10.132;2022-09-12T11:43:02;24.30;1.00
13253;DHT22;6693;54.370;10.132;2022-09-12T11:45:08;24.30;1.00
13253;DHT22;6693;54.370;10.132;2022-09-12T11:47:13;24.40;1.00
13253;DHT22;6693;54.370;10.132;2022-09-12T11:49:16;24.20;1.00
13253;DHT22;6693;54.370;10.132;2022-09-12T11:51:20;24.50;1.00
13253;DHT22;6693;54.370;10.132;2022-09-12T11:53:25;24.80;1.00
13253;DHT22;6693;54.370;10.132;2022-09-12T11:55:31;24.40;1.00
13253;DHT22;6693;54.370;10.132;2022-09-12T11:57:38;24.30;1.00
13253;DHT22;6693;54.370;10.132;2022-09-12T11:59:42;24.30;1.00
13253;DHT22;6693;54.370;10.132;2022-09-12T12:01:44;24.50;1.00
13253;DHT22;6693;54.370;10.132;2022-09-12T12:03:50;24.70;1.00
13253;DHT22;6693;54.370;10.132;2022-09-12T12:05:56;24.60;99.90
13253;DHT22;6693;54.370;10.132;2022-09-12T12:08:00;24.60;99.90
13253;DHT22;6693;54.370;10.132;2022-09-12T12:10:02;24.60;99.90
13253;DHT22;6693;54.370;10.132;2022-09-12T12:12:06;24.60;99.90
13253;DHT22;6693;54.370;10.132;2022-09-12T12:14:12;24.60;99.90
13253;DHT22;6693;54.370;10.132;2022-09-12T12:16:15;24.60;99.90
13253;DHT22;6693;54.370;10.132;2022-09-12T12:18:21;25.00;99.90
13253;DHT22;6693;54.370;10.132;2022-09-12T12:20:23;24.60;99.90
13253;DHT22;6693;54.370;10.132;2022-09-12T12:22:25;24.50;99.90
13253;DHT22;6693;54.370;10.132;2022-09-12T12:24:26;24.40;99.90
13253;DHT22;6693;54.370;10.132;2022-09-12T12:28:59;24.80;99.90
13253;DHT22;6693;54.370;10.132;2022-09-12T12:31:01;25.30;99.90
13253;DHT22;6693;54.370;10.132;2022-09-12T12:33:06;25.10;99.90
13253;DHT22;6693;54.370;10.132;2022-09-12T12:35:38;25.10;99.90
13253;DHT22;6693;54.370;10.132;2022-09-12T12:37:47;25.00;99.90
13253;DHT22;6693;54.370;10.132;2022-09-12T12:42:04;25.20;99.90
13253;DHT22;6693;54.370;10.132;2022-09-12T12:46:24;25.10;99.90
13253;DHT22;6693;54.370;10.132;2022-09-12T12:48:28;25.40;99.90
13253;DHT22;6693;54.370;10.132;2022-09-12T12:50:29;25.10;99.90
13253;DHT22;6693;54.370;10.132;2022-09-12T12:52:32;25.30;99.90
13253;DHT22;6693;54.370;10.132;2022-09-12T12:56:59;25.60;99.90
13253;DHT22;6693;54.370;10.132;2022-09-12T12:59:01;25.70;99.90
13253;DHT22;6693;54.370;10.132;2022-09-12T13:01:06;25.50;99.90
13253;DHT22;6693;54.370;10.132;2022-09-12T13:03:16;25.60;99.90
13253;DHT22;6693;54.370;10.132;2022-09-12T13:05:23;25.70;99.90
13253;DHT22;6693;54.370;10.132;2022-09-12T13:07:27;25.70;99.90
13253;DHT22;6693;54.370;10.132;2022-09-12T13:09:30;25.90;99.90
13253;DHT22;6693;54.370;10.132;2022-09-12T13:11:33;25.50;99.90
13253;DHT22;6693;54.370;10.132;2022-09-12T13:13:36;25.80;99.90
13253;DHT22;6693;54.370;10.132;2022-09-12T13:15:46;25.70;99.90
13253;DHT22;6693;54.370;10.132;2022-09-12T13:17:48;25.80;99.90
13253;DHT22;6693;54.370;10.132;2022-09-12T13:19:52;25.70;99.90
13253;DHT22;6693;54.370;10.132;2022-09-12T13:21:54;25.70;99.90
13253;DHT22;6693;54.370;10.132;2022-09-12T13:23:59;25.30;98.60
13253;DHT22;6693;54.370;10.132;2022-09-12T13:26:01;25.50;99.90
13253;DHT22;6693;54.370;10.132;2022-09-12T13:28:05;25.80;99.90
13253;DHT22;6693;54.370;10.132;2022-09-12T13:30:07;25.80;86.20